sensor_id;sensor_type;location;lat;lon;timestamp;P1;durP1;ratioP1;P2;durP2;ratioP2
8909;SDS011;4490;49.072;8.804;2023-03-11T00:00:06;2.67;;;1.70;;
8909;SDS011;4490;49.072;8.804;2023-03-11T00:02:37;1.50;;;1.40;;
8909;SDS011;4490;49.072;8.804;2023-03-11T00:05:04;1.57;;;1.47;;
8909;SDS011;4490;49.072;8.804;2023-03-11T00:07:30;2.60;;;1.73;;
8909;SDS011;4490;49.072;8.804;2023-03-11T00:09:55;1.70;;;1.60;;
8909;SDS011;4490;49.072;8.804;2023-03-11T00:12:21;1.87;;;1.70;;
8909;SDS011;4490;49.072;8.804;2023-03-11T00:14:47;2.70;;;1.50;;
8909;SDS011;4490;49.072;8.804;2023-03-11T00:17:12;1.80;;;1.60;;
8909;SDS011;4490;49.072;8.804;2023-03-11T00:19:38;5.07;;;1.50;;
8909;SDS011;4490;49.072;8.804;2023-03-11T00:22:04;1.70;;;1.40;;
8909;SDS011;4490;49.072;8.804;2023-03-11T00:24:29;1.40;;;1.30;;
8909;SDS011;4490;49.072;8.804;2023-03-11T00:26:55;2.30;;;1.40;;
8909;SDS011;4490;49.072;8.804;2023-03-11T00:29:21;1.93;;;1.50;;
8909;SDS011;4490;49.072;8.804;2023-03-11T00:31:46;1.60;;;1.50;;
8909;SDS011;4490;49.072;8.804;2023-03-11T00:34:12;1.70;;;1.40;;
8909;SDS011;4490;49.072;8.804;2023-03-11T00:36:38;1.40;;;1.27;;
8909;SDS011;4490;49.072;8.804;2023-03-11T00:39:04;1.20;;;1.20;;
8909;SDS011;4490;49.072;8.804;2023-03-11T00:41:35;2.00;;;1.67;;
8909;SDS011;4490;49.072;8.804;2023-03-11T00:44:01;1.47;;;1.37;;
8909;SDS011;4490;49.072;8.804;2023-03-11T00:46:27;1.80;;;1.47;;
8909;SDS011;4490;49.072;8.804;2023-03-11T00:48:54;2.07;;;1.40;;
8909;SDS011;4490;49.072;8.804;2023-03-11T00:51:20;1.60;;;1.50;;
8909;SDS011;4490;49.072;8.804;2023-03-11T00:53:46;2.50;;;1.60;;
8909;SDS011;4490;49.072;8.804;2023-03-11T00:56:12;1.60;;;1.47;;
8909;SDS011;4490;49.072;8.804;2023-03-11T00:58:41;1.70;;;1.30;;
8909;SDS011;4490;49.072;8.804;2023-03-11T01:01:12;2.93;;;1.40;;
8909;SDS011;4490;49.072;8.804;2023-03-11T01:03:39;1.70;;;1.60;;
8909;SDS011;4490;49.072;8.804;2023-03-11T01:06:05;1.60;;;1.27;;
8909;SDS011;4490;49.072;8.804;2023-03-11T01:08:31;1.57;;;1.47;;
8909;SDS011;4490;49.072;8.804;2023-03-11T01:10:57;1.70;;;1.37;;
8909;SDS011;4490;49.072;8.804;2023-03-11T01:13:24;1.53;;;1.43;;
8909;SDS011;4490;49.072;8.804;2023-03-11T01:15:51;1.73;;;1.50;;
8909;SDS011;4490;49.072;8.804;2023-03-11T01:18:17;1.80;;;1.63;;
8909;SDS011;4490;49.072;8.804;2023-03-11T01:20:44;1.60;;;1.50;;
8909;SDS011;4490;49.072;8.804;2023-03-11T01:23:11;2.07;;;1.60;;
8909;SDS011;4490;49.072;8.804;2023-03-11T01:25:38;1.63;;;1.20;;
8909;SDS011;4490;49.072;8.804;2023-03-11T01:28:04;2.73;;;1.40;;
8909;SDS011;4490;49.072;8.804;2023-03-11T01:30:32;1.20;;;1.20;;
8909;SDS011;4490;49.072;8.804;2023-03-11T01:32:59;1.63;;;1.20;;
8909;SDS011;4490;49.072;8.804;2023-03-11T01:35:26;1.10;;;1.10;;
8909;SDS011;4490;49.072;8.804;2023-03-11T01:37:53;2.83;;;1.43;;
8909;SDS011;4490;49.072;8.804;2023-03-11T01:40:22;1.83;;;1.40;;
8909;SDS011;4490;49.072;8.804;2023-03-11T01:42:55;2.53;;;1.40;;
8909;SDS011;4490;49.072;8.804;2023-03-11T01:45:29;2.73;;;1.33;;
8909;SDS011;4490;49.072;8.804;2023-03-11T01:48:04;2.40;;;1.57;;
8909;SDS011;4490;49.072;8.804;2023-03-11T01:50:33;2.87;;;1.50;;
8909;SDS011;4490;49.072;8.804;2023-03-11T01:53:02;3.17;;;1.50;;
8909;SDS011;4490;49.072;8.804;2023-03-11T01:55:29;1.97;;;1.30;;
8909;SDS011;4490;49.072;8.804;2023-03-11T01:57:56;1.30;;;1.20;;
8909;SDS011;4490;49.072;8.804;2023-03-11T02:00:23;2.60;;;1.40;;
8909;SDS011;4490;49.072;8.804;2023-03-11T02:02:53;2.77;;;1.50;;
8909;SDS011;4490;49.072;8.804;2023-03-11T02:05:21;6.03;;;1.53;;
8909;SDS011;4490;49.072;8.804;2023-03-11T02:07:48;1.93;;;1.40;;
8909;SDS011;4490;49.072;8.804;2023-03-11T02:10:16;3.20;;;1.70;;
8909;SDS011;4490;49.072;8.804;2023-03-11T02:12:42;3.03;;;1.50;;
8909;SDS011;4490;49.072;8.804;2023-03-11T02:15:10;3.70;;;1.50;;
8909;SDS011;4490;49.072;8.804;2023-03-11T02:17:37;2.23;;;1.20;;
8909;SDS011;4490;49.072;8.804;2023-03-11T02:22:56;3.57;;;1.57;;
8909;SDS011;4490;49.072;8.804;2023-03-11T02:28:10;2.40;;;1.70;;
8909;SDS011;4490;49.072;8.804;2023-03-11T02:30:39;2.20;;;1.60;;
8909;SDS011;4490;49.072;8.804;2023-03-11T02:33:07;3.53;;;1.63;;
8909;SDS011;4490;49.072;8.804;2023-03-11T02:35:34;2.73;;;1.70;;
8909;SDS011;4490;49.072;8.804;2023-03-11T02:37:59;2.13;;;1.67;;
8909;SDS011;4490;49.072;8.804;2023-03-11T02:42:54;2.13;;;1.67;;
8909;SDS011;4490;49.072;8.804;2023-03-11T02:45:23;5.47;;;2.00;;
8909;SDS011;4490;49.072;8.804;2023-03-11T02:47:54;3.20;;;1.80;;
8909;SDS011;4490;49.072;8.804;2023-03-11T02:50:22;3.47;;;1.53;;
8909;SDS011;4490;49.072;8.804;2023-03-11T02:52:49;3.67;;;1.80;;
8909;SDS011;4490;49.072;8.804;2023-03-11T02:55:16;3.20;;;1.67;;
8909;SDS011;4490;49.072;8.804;2023-03-11T02:57:44;3.40;;;2.10;;
8909;SDS011;4490;49.072;8.804;2023-03-11T03:00:11;4.07;;;1.63;;
8909;SDS011;4490;49.072;8.804;2023-03-11T03:02:40;6.23;;;1.80;;
8909;SDS011;4490;49.072;8.804;2023-03-11T03:05:06;2.90;;;1.47;;
8909;SDS011;4490;49.072;8.804;2023-03-11T03:07:33;5.40;;;1.77;;
8909;SDS011;4490;49.072;8.804;2023-03-11T03:09:58;2.33;;;1.63;;
8909;SDS011;4490;49.072;8.804;2023-03-11T03:12:24;4.23;;;1.63;;
8909;SDS011;4490;49.072;8.804;2023-03-11T03:14:50;2.77;;;1.33;;
8909;SDS011;4490;49.072;8.804;2023-03-11T03:17:15;6.30;;;1.43;;
8909;SDS011;4490;49.072;8.804;2023-03-11T03:19:41;2.93;;;1.40;;
8909;SDS011;4490;49.072;8.804;2023-03-11T03:22:07;3.77;;;1.50;;
8909;SDS011;4490;49.072;8.804;2023-03-11T03:24:33;3.30;;;1.30;;
8909;SDS011;4490;49.072;8.804;2023-03-11T03:26:58;2.17;;;1.40;;
8909;SDS011;4490;49.072;8.804;2023-03-11T03:29:24;2.20;;;1.40;;
8909;SDS011;4490;49.072;8.804;2023-03-11T03:31:50;3.17;;;1.67;;
8909;SDS011;4490;49.072;8.804;2023-03-11T03:34:15;3.60;;;1.53;;
8909;SDS011;4490;49.072;8.804;2023-03-11T03:36:41;4.60;;;1.70;;
8909;SDS011;4490;49.072;8.804;2023-03-11T03:39:07;3.23;;;1.90;;
8909;SDS011;4490;49.072;8.804;2023-03-11T03:41:32;3.50;;;1.60;;
8909;SDS011;4490;49.072;8.804;2023-03-11T03:43:58;3.17;;;1.63;;
8909;SDS011;4490;49.072;8.804;2023-03-11T03:46:24;5.37;;;1.60;;
8909;SDS011;4490;49.072;8.804;2023-03-11T03:48:50;3.33;;;1.50;;
8909;SDS011;4490;49.072;8.804;2023-03-11T03:51:15;3.43;;;1.60;;
8909;SDS011;4490;49.072;8.804;2023-03-11T03:53:41;2.97;;;1.67;;
8909;SDS011;4490;49.072;8.804;2023-03-11T03:56:12;2.10;;;1.47;;
8909;SDS011;4490;49.072;8.804;2023-03-11T03:58:39;8.13;;;1.90;;
8909;SDS011;4490;49.072;8.804;2023-03-11T04:01:05;3.87;;;1.57;;
8909;SDS011;4490;49.072;8.804;2023-03-11T04:03:31;2.97;;;1.63;;
8909;SDS011;4490;49.072;8.804;2023-03-11T04:06:16;2.93;;;1.83;;
8909;SDS011;4490;49.072;8.804;2023-03-11T04:08:46;4.33;;;1.70;;
8909;SDS011;4490;49.072;8.804;2023-03-11T04:11:12;5.43;;;1.53;;
8909;SDS011;4490;49.072;8.804;2023-03-11T04:13:38;6.63;;;1.47;;
8909;SDS011;4490;49.072;8.804;2023-03-11T04:16:04;5.57;;;1.83;;
8909;SDS011;4490;49.072;8.804;2023-03-11T04:18:31;3.27;;;1.40;;
8909;SDS011;4490;49.072;8.804;2023-03-11T04:20:58;2.77;;;1.60;;
8909;SDS011;4490;49.072;8.804;2023-03-11T04:23:23;2.17;;;1.57;;
8909;SDS011;4490;49.072;8.804;2023-03-11T04:25:49;1.87;;;1.57;;
8909;SDS011;4490;49.072;8.804;2023-03-11T04:28:15;3.53;;;1.57;;
8909;SDS011;4490;49.072;8.804;2023-03-11T04:30:41;3.63;;;1.53;;
8909;SDS011;4490;49.072;8.804;2023-03-11T04:33:06;6.97;;;1.80;;
8909;SDS011;4490;49.072;8.804;2023-03-11T04:35:32;4.63;;;1.80;;
8909;SDS011;4490;49.072;8.804;2023-03-11T04:37:58;6.20;;;1.90;;
8909;SDS011;4490;49.072;8.804;2023-03-11T04:40:24;3.07;;;2.07;;
8909;SDS011;4490;49.072;8.804;2023-03-11T04:42:50;2.30;;;1.50;;
8909;SDS011;4490;49.072;8.804;2023-03-11T04:45:17;3.43;;;1.57;;
8909;SDS011;4490;49.072;8.804;2023-03-11T04:47:45;5.10;;;1.63;;
8909;SDS011;4490;49.072;8.804;2023-03-11T04:50:12;4.03;;;1.77;;
8909;SDS011;4490;49.072;8.804;2023-03-11T04:52:38;4.33;;;1.80;;
8909;SDS011;4490;49.072;8.804;2023-03-11T04:55:04;1.67;;;1.57;;
8909;SDS011;4490;49.072;8.804;2023-03-11T04:57:30;4.97;;;1.83;;
8909;SDS011;4490;49.072;8.804;2023-03-11T04:59:55;5.50;;;1.80;;
8909;SDS011;4490;49.072;8.804;2023-03-11T05:02:21;3.63;;;1.80;;
8909;SDS011;4490;49.072;8.804;2023-03-11T05:04:47;3.30;;;1.80;;
8909;SDS011;4490;49.072;8.804;2023-03-11T05:07:12;5.43;;;2.27;;
8909;SDS011;4490;49.072;8.804;2023-03-11T05:09:38;6.63;;;1.90;;
8909;SDS011;4490;49.072;8.804;2023-03-11T05:12:04;5.27;;;2.37;;
8909;SDS011;4490;49.072;8.804;2023-03-11T05:14:30;4.90;;;2.13;;
8909;SDS011;4490;49.072;8.804;2023-03-11T05:16:56;5.30;;;1.93;;
8909;SDS011;4490;49.072;8.804;2023-03-11T05:19:21;2.40;;;1.60;;
8909;SDS011;4490;49.072;8.804;2023-03-11T05:21:58;4.77;;;1.67;;
8909;SDS011;4490;49.072;8.804;2023-03-11T05:24:23;5.00;;;2.30;;
8909;SDS011;4490;49.072;8.804;2023-03-11T05:26:52;4.33;;;1.80;;
8909;SDS011;4490;49.072;8.804;2023-03-11T05:29:18;6.97;;;1.87;;
8909;SDS011;4490;49.072;8.804;2023-03-11T05:31:44;2.13;;;1.77;;
8909;SDS011;4490;49.072;8.804;2023-03-11T05:34:10;3.17;;;2.10;;
8909;SDS011;4490;49.072;8.804;2023-03-11T05:36:36;6.63;;;2.13;;
8909;SDS011;4490;49.072;8.804;2023-03-11T05:39:02;7.27;;;2.03;;
8909;SDS011;4490;49.072;8.804;2023-03-11T05:41:28;6.60;;;1.97;;
8909;SDS011;4490;49.072;8.804;2023-03-11T05:43:53;6.07;;;2.10;;
8909;SDS011;4490;49.072;8.804;2023-03-11T05:46:19;3.90;;;1.80;;
8909;SDS011;4490;49.072;8.804;2023-03-11T05:48:45;4.27;;;1.70;;
8909;SDS011;4490;49.072;8.804;2023-03-11T05:51:11;5.17;;;1.90;;
8909;SDS011;4490;49.072;8.804;2023-03-11T05:53:37;4.80;;;2.20;;
8909;SDS011;4490;49.072;8.804;2023-03-11T05:56:05;5.70;;;2.17;;
8909;SDS011;4490;49.072;8.804;2023-03-11T05:58:31;7.50;;;2.17;;
8909;SDS011;4490;49.072;8.804;2023-03-11T06:00:57;4.33;;;1.97;;
8909;SDS011;4490;49.072;8.804;2023-03-11T06:03:25;4.63;;;1.90;;
8909;SDS011;4490;49.072;8.804;2023-03-11T06:05:51;4.87;;;2.17;;
8909;SDS011;4490;49.072;8.804;2023-03-11T06:08:17;3.43;;;2.00;;
8909;SDS011;4490;49.072;8.804;2023-03-11T06:10:43;4.20;;;2.30;;
8909;SDS011;4490;49.072;8.804;2023-03-11T06:13:09;4.53;;;2.00;;
8909;SDS011;4490;49.072;8.804;2023-03-11T06:15:36;2.90;;;2.00;;
8909;SDS011;4490;49.072;8.804;2023-03-11T06:18:02;6.13;;;2.33;;
8909;SDS011;4490;49.072;8.804;2023-03-11T06:20:27;5.63;;;2.00;;
8909;SDS011;4490;49.072;8.804;2023-03-11T06:22:53;5.73;;;2.40;;
8909;SDS011;4490;49.072;8.804;2023-03-11T06:25:19;3.07;;;2.20;;
8909;SDS011;4490;49.072;8.804;2023-03-11T06:27:48;6.17;;;2.30;;
8909;SDS011;4490;49.072;8.804;2023-03-11T06:30:15;4.47;;;2.03;;
8909;SDS011;4490;49.072;8.804;2023-03-11T06:32:42;5.00;;;2.10;;
8909;SDS011;4490;49.072;8.804;2023-03-11T06:35:09;4.40;;;2.00;;
8909;SDS011;4490;49.072;8.804;2023-03-11T06:37:36;5.77;;;2.17;;
8909;SDS011;4490;49.072;8.804;2023-03-11T06:40:02;5.40;;;2.20;;
8909;SDS011;4490;49.072;8.804;2023-03-11T06:42:29;4.97;;;2.30;;
8909;SDS011;4490;49.072;8.804;2023-03-11T06:44:55;6.00;;;2.20;;
8909;SDS011;4490;49.072;8.804;2023-03-11T06:47:21;6.07;;;2.40;;
8909;SDS011;4490;49.072;8.804;2023-03-11T06:49:47;4.97;;;2.17;;
8909;SDS011;4490;49.072;8.804;2023-03-11T06:52:14;3.90;;;2.10;;
8909;SDS011;4490;49.072;8.804;2023-03-11T06:54:40;7.17;;;2.20;;
8909;SDS011;4490;49.072;8.804;2023-03-11T06:57:06;4.40;;;2.20;;
8909;SDS011;4490;49.072;8.804;2023-03-11T06:59:33;7.00;;;2.00;;
8909;SDS011;4490;49.072;8.804;2023-03-11T07:01:59;3.33;;;2.13;;
8909;SDS011;4490;49.072;8.804;2023-03-11T07:04:25;5.83;;;2.27;;
8909;SDS011;4490;49.072;8.804;2023-03-11T07:06:54;4.57;;;2.67;;
8909;SDS011;4490;49.072;8.804;2023-03-11T07:09:20;5.17;;;2.13;;
8909;SDS011;4490;49.072;8.804;2023-03-11T07:11:47;6.20;;;2.13;;
8909;SDS011;4490;49.072;8.804;2023-03-11T07:14:13;4.83;;;2.07;;
8909;SDS011;4490;49.072;8.804;2023-03-11T07:16:39;7.23;;;2.47;;
8909;SDS011;4490;49.072;8.804;2023-03-11T07:19:05;6.27;;;2.30;;
8909;SDS011;4490;49.072;8.804;2023-03-11T07:21:31;6.00;;;2.40;;
8909;SDS011;4490;49.072;8.804;2023-03-11T07:23:58;5.17;;;2.90;;
8909;SDS011;4490;49.072;8.804;2023-03-11T07:26:25;4.97;;;2.20;;
8909;SDS011;4490;49.072;8.804;2023-03-11T07:28:55;5.73;;;2.50;;
8909;SDS011;4490;49.072;8.804;2023-03-11T07:31:25;6.97;;;2.30;;
8909;SDS011;4490;49.072;8.804;2023-03-11T07:33:56;4.50;;;2.47;;
8909;SDS011;4490;49.072;8.804;2023-03-11T07:36:23;4.70;;;2.10;;
8909;SDS011;4490;49.072;8.804;2023-03-11T07:39:09;7.90;;;2.30;;
8909;SDS011;4490;49.072;8.804;2023-03-11T07:41:38;3.10;;;1.83;;
8909;SDS011;4490;49.072;8.804;2023-03-11T07:44:04;4.87;;;2.20;;
8909;SDS011;4490;49.072;8.804;2023-03-11T07:46:29;7.73;;;2.50;;
8909;SDS011;4490;49.072;8.804;2023-03-11T07:48:55;8.23;;;2.37;;
8909;SDS011;4490;49.072;8.804;2023-03-11T07:51:22;4.73;;;1.73;;
8909;SDS011;4490;49.072;8.804;2023-03-11T07:53:53;5.37;;;2.37;;
8909;SDS011;4490;49.072;8.804;2023-03-11T07:56:20;3.50;;;1.80;;
8909;SDS011;4490;49.072;8.804;2023-03-11T07:58:47;5.30;;;1.80;;
8909;SDS011;4490;49.072;8.804;2023-03-11T08:01:19;4.83;;;1.93;;
8909;SDS011;4490;49.072;8.804;2023-03-11T08:03:48;3.83;;;1.83;;
8909;SDS011;4490;49.072;8.804;2023-03-11T08:06:16;3.77;;;1.83;;
8909;SDS011;4490;49.072;8.804;2023-03-11T08:08:47;4.67;;;1.80;;
8909;SDS011;4490;49.072;8.804;2023-03-11T08:11:14;4.37;;;2.07;;
8909;SDS011;4490;49.072;8.804;2023-03-11T08:13:41;4.97;;;1.73;;
8909;SDS011;4490;49.072;8.804;2023-03-11T08:16:07;4.63;;;1.77;;
8909;SDS011;4490;49.072;8.804;2023-03-11T08:18:35;6.60;;;2.20;;
8909;SDS011;4490;49.072;8.804;2023-03-11T08:21:07;5.97;;;1.90;;
8909;SDS011;4490;49.072;8.804;2023-03-11T08:23:35;3.73;;;1.60;;
8909;SDS011;4490;49.072;8.804;2023-03-11T08:26:02;7.47;;;2.30;;
8909;SDS011;4490;49.072;8.804;2023-03-11T08:28:29;5.93;;;1.70;;
8909;SDS011;4490;49.072;8.804;2023-03-11T08:30:54;3.83;;;2.30;;
8909;SDS011;4490;49.072;8.804;2023-03-11T08:33:20;5.43;;;2.10;;
8909;SDS011;4490;49.072;8.804;2023-03-11T08:35:46;3.47;;;1.60;;
8909;SDS011;4490;49.072;8.804;2023-03-11T08:38:11;3.53;;;1.80;;
8909;SDS011;4490;49.072;8.804;2023-03-11T08:40:37;3.90;;;1.90;;
8909;SDS011;4490;49.072;8.804;2023-03-11T08:43:03;7.67;;;2.27;;
8909;SDS011;4490;49.072;8.804;2023-03-11T08:45:28;5.77;;;2.10;;
8909;SDS011;4490;49.072;8.804;2023-03-11T08:47:54;5.90;;;2.07;;
8909;SDS011;4490;49.072;8.804;2023-03-11T08:50:20;5.13;;;1.90;;
8909;SDS011;4490;49.072;8.804;2023-03-11T08:52:45;4.07;;;1.77;;
8909;SDS011;4490;49.072;8.804;2023-03-11T08:55:12;6.63;;;2.00;;
8909;SDS011;4490;49.072;8.804;2023-03-11T08:57:40;5.00;;;1.93;;
8909;SDS011;4490;49.072;8.804;2023-03-11T09:00:06;3.27;;;2.10;;
8909;SDS011;4490;49.072;8.804;2023-03-11T09:02:33;4.27;;;1.80;;
8909;SDS011;4490;49.072;8.804;2023-03-11T09:04:59;5.27;;;1.90;;
8909;SDS011;4490;49.072;8.804;2023-03-11T09:07:24;5.30;;;1.97;;
8909;SDS011;4490;49.072;8.804;2023-03-11T09:09:50;3.60;;;2.10;;
8909;SDS011;4490;49.072;8.804;2023-03-11T09:12:16;5.07;;;1.97;;
8909;SDS011;4490;49.072;8.804;2023-03-11T09:14:42;7.17;;;2.00;;
8909;SDS011;4490;49.072;8.804;2023-03-11T09:17:08;3.20;;;2.00;;
8909;SDS011;4490;49.072;8.804;2023-03-11T09:19:34;6.53;;;2.20;;
8909;SDS011;4490;49.072;8.804;2023-03-11T09:22:00;5.37;;;2.00;;
8909;SDS011;4490;49.072;8.804;2023-03-11T09:24:26;6.53;;;2.07;;
8909;SDS011;4490;49.072;8.804;2023-03-11T09:26:52;6.93;;;1.77;;
8909;SDS011;4490;49.072;8.804;2023-03-11T09:29:18;5.03;;;1.90;;
8909;SDS011;4490;49.072;8.804;2023-03-11T09:31:44;3.97;;;1.63;;
8909;SDS011;4490;49.072;8.804;2023-03-11T09:34:10;3.40;;;1.80;;
8909;SDS011;4490;49.072;8.804;2023-03-11T09:36:39;5.33;;;1.70;;
8909;SDS011;4490;49.072;8.804;2023-03-11T09:39:05;8.23;;;2.67;;
8909;SDS011;4490;49.072;8.804;2023-03-11T09:41:33;5.67;;;2.13;;
8909;SDS011;4490;49.072;8.804;2023-03-11T09:44:17;4.20;;;1.93;;
8909;SDS011;4490;49.072;8.804;2023-03-11T09:52:13;5.57;;;2.20;;
8909;SDS011;4490;49.072;8.804;2023-03-11T09:54:47;5.30;;;1.73;;
8909;SDS011;4490;49.072;8.804;2023-03-11T09:57:20;6.70;;;2.30;;
8909;SDS011;4490;49.072;8.804;2023-03-11T09:59:48;6.63;;;2.03;;
8909;SDS011;4490;49.072;8.804;2023-03-11T10:02:16;6.27;;;2.00;;
8909;SDS011;4490;49.072;8.804;2023-03-11T10:04:48;3.73;;;1.80;;
8909;SDS011;4490;49.072;8.804;2023-03-11T10:07:21;4.10;;;1.80;;
8909;SDS011;4490;49.072;8.804;2023-03-11T10:10:12;2.83;;;1.60;;
8909;SDS011;4490;49.072;8.804;2023-03-11T10:15:19;5.13;;;1.60;;
8909;SDS011;4490;49.072;8.804;2023-03-11T10:23:26;5.20;;;1.93;;
8909;SDS011;4490;49.072;8.804;2023-03-11T10:26:36;3.90;;;1.90;;
8909;SDS011;4490;49.072;8.804;2023-03-11T10:29:14;6.10;;;2.20;;
8909;SDS011;4490;49.072;8.804;2023-03-11T10:32:04;3.17;;;1.60;;
8909;SDS011;4490;49.072;8.804;2023-03-11T10:37:38;5.80;;;1.70;;
8909;SDS011;4490;49.072;8.804;2023-03-11T10:40:15;4.90;;;1.93;;
8909;SDS011;4490;49.072;8.804;2023-03-11T10:42:45;3.77;;;1.80;;
8909;SDS011;4490;49.072;8.804;2023-03-11T10:45:12;5.50;;;2.10;;
8909;SDS011;4490;49.072;8.804;2023-03-11T10:47:38;4.30;;;1.87;;
8909;SDS011;4490;49.072;8.804;2023-03-11T10:50:04;5.70;;;1.80;;
8909;SDS011;4490;49.072;8.804;2023-03-11T10:52:30;2.23;;;1.70;;
8909;SDS011;4490;49.072;8.804;2023-03-11T10:55:00;2.13;;;1.30;;
8909;SDS011;4490;49.072;8.804;2023-03-11T10:57:36;4.87;;;1.77;;
8909;SDS011;4490;49.072;8.804;2023-03-11T11:00:06;4.17;;;1.80;;
8909;SDS011;4490;49.072;8.804;2023-03-11T11:02:51;3.67;;;1.70;;
8909;SDS011;4490;49.072;8.804;2023-03-11T11:05:29;3.70;;;1.53;;
8909;SDS011;4490;49.072;8.804;2023-03-11T11:08:04;3.00;;;1.40;;
8909;SDS011;4490;49.072;8.804;2023-03-11T11:10:49;3.90;;;1.87;;
8909;SDS011;4490;49.072;8.804;2023-03-11T11:13:27;2.87;;;1.97;;
8909;SDS011;4490;49.072;8.804;2023-03-11T11:18:22;4.20;;;1.70;;
8909;SDS011;4490;49.072;8.804;2023-03-11T11:23:37;7.83;;;3.13;;
8909;SDS011;4490;49.072;8.804;2023-03-11T11:26:05;5.13;;;1.70;;
8909;SDS011;4490;49.072;8.804;2023-03-11T11:31:38;1.70;;;1.50;;
8909;SDS011;4490;49.072;8.804;2023-03-11T11:34:42;3.57;;;1.50;;
8909;SDS011;4490;49.072;8.804;2023-03-11T11:37:01;3.63;;;1.67;;
8909;SDS011;4490;49.072;8.804;2023-03-11T11:39:31;3.93;;;1.93;;
8909;SDS011;4490;49.072;8.804;2023-03-11T11:42:03;2.83;;;1.60;;
8909;SDS011;4490;49.072;8.804;2023-03-11T11:44:35;4.47;;;2.20;;
8909;SDS011;4490;49.072;8.804;2023-03-11T11:47:03;4.87;;;1.90;;
8909;SDS011;4490;49.072;8.804;2023-03-11T11:49:47;4.23;;;1.70;;
8909;SDS011;4490;49.072;8.804;2023-03-11T11:52:18;3.33;;;1.90;;
8909;SDS011;4490;49.072;8.804;2023-03-11T11:55:11;2.77;;;1.90;;
8909;SDS011;4490;49.072;8.804;2023-03-11T11:57:44;3.37;;;1.70;;
8909;SDS011;4490;49.072;8.804;2023-03-11T12:00:20;5.50;;;2.07;;
8909;SDS011;4490;49.072;8.804;2023-03-11T12:03:07;5.07;;;1.87;;
8909;SDS011;4490;49.072;8.804;2023-03-11T12:05:51;5.77;;;1.90;;
8909;SDS011;4490;49.072;8.804;2023-03-11T12:11:25;4.87;;;1.97;;
8909;SDS011;4490;49.072;8.804;2023-03-11T12:27:47;3.20;;;1.53;;
8909;SDS011;4490;49.072;8.804;2023-03-11T12:30:35;3.97;;;1.70;;
8909;SDS011;4490;49.072;8.804;2023-03-11T12:35:54;2.87;;;1.83;;
8909;SDS011;4490;49.072;8.804;2023-03-11T12:46:07;2.80;;;1.50;;
8909;SDS011;4490;49.072;8.804;2023-03-11T12:51:36;6.23;;;1.80;;
8909;SDS011;4490;49.072;8.804;2023-03-11T12:53:57;2.27;;;1.70;;
8909;SDS011;4490;49.072;8.804;2023-03-11T13:10:33;4.80;;;1.80;;
8909;SDS011;4490;49.072;8.804;2023-03-11T13:13:00;4.90;;;1.63;;
8909;SDS011;4490;49.072;8.804;2023-03-11T13:15:27;4.33;;;1.73;;
8909;SDS011;4490;49.072;8.804;2023-03-11T13:25:55;5.60;;;1.70;;
8909;SDS011;4490;49.072;8.804;2023-03-11T13:42:23;4.37;;;1.77;;
8909;SDS011;4490;49.072;8.804;2023-03-11T13:45:04;3.70;;;1.57;;
8909;SDS011;4490;49.072;8.804;2023-03-11T13:47:36;2.97;;;1.60;;
8909;SDS011;4490;49.072;8.804;2023-03-11T13:53:15;3.50;;;1.70;;
8909;SDS011;4490;49.072;8.804;2023-03-11T13:55:45;2.90;;;1.63;;
8909;SDS011;4490;49.072;8.804;2023-03-11T13:58:17;4.60;;;2.10;;
8909;SDS011;4490;49.072;8.804;2023-03-11T14:00:48;2.30;;;1.40;;
8909;SDS011;4490;49.072;8.804;2023-03-11T14:03:16;4.10;;;1.50;;
8909;SDS011;4490;49.072;8.804;2023-03-11T14:05:46;3.13;;;1.40;;
8909;SDS011;4490;49.072;8.804;2023-03-11T14:10:51;3.77;;;1.50;;
8909;SDS011;4490;49.072;8.804;2023-03-11T14:13:28;3.33;;;1.70;;
8909;SDS011;4490;49.072;8.804;2023-03-11T14:18:40;3.67;;;1.90;;
8909;SDS011;4490;49.072;8.804;2023-03-11T14:21:16;3.27;;;1.60;;
8909;SDS011;4490;49.072;8.804;2023-03-11T14:23:48;4.07;;;1.57;;
8909;SDS011;4490;49.072;8.804;2023-03-11T14:26:29;2.53;;;1.50;;
8909;SDS011;4490;49.072;8.804;2023-03-11T14:28:58;4.13;;;1.63;;
8909;SDS011;4490;49.072;8.804;2023-03-11T14:31:41;2.97;;;1.63;;
8909;SDS011;4490;49.072;8.804;2023-03-11T14:36:43;2.60;;;1.70;;
8909;SDS011;4490;49.072;8.804;2023-03-11T14:41:57;3.43;;;1.80;;
8909;SDS011;4490;49.072;8.804;2023-03-11T14:47:36;4.60;;;1.53;;
8909;SDS011;4490;49.072;8.804;2023-03-11T14:50:16;4.23;;;1.80;;
8909;SDS011;4490;49.072;8.804;2023-03-11T14:55:19;3.47;;;1.30;;
8909;SDS011;4490;49.072;8.804;2023-03-11T14:57:55;3.73;;;1.67;;
8909;SDS011;4490;49.072;8.804;2023-03-11T15:00:28;3.80;;;1.60;;
8909;SDS011;4490;49.072;8.804;2023-03-11T15:05:55;5.60;;;1.43;;
8909;SDS011;4490;49.072;8.804;2023-03-11T15:08:46;2.47;;;1.40;;
8909;SDS011;4490;49.072;8.804;2023-03-11T15:13:42;3.67;;;1.60;;
8909;SDS011;4490;49.072;8.804;2023-03-11T15:16:21;6.70;;;1.70;;
8909;SDS011;4490;49.072;8.804;2023-03-11T15:18:49;2.70;;;1.50;;
8909;SDS011;4490;49.072;8.804;2023-03-11T15:21:20;3.70;;;1.73;;
8909;SDS011;4490;49.072;8.804;2023-03-11T15:24:02;4.77;;;1.60;;
8909;SDS011;4490;49.072;8.804;2023-03-11T15:26:31;5.10;;;1.80;;
8909;SDS011;4490;49.072;8.804;2023-03-11T15:29:00;3.17;;;1.80;;
8909;SDS011;4490;49.072;8.804;2023-03-11T15:31:32;2.70;;;1.30;;
8909;SDS011;4490;49.072;8.804;2023-03-11T15:34:09;3.67;;;1.40;;
8909;SDS011;4490;49.072;8.804;2023-03-11T15:36:52;4.23;;;1.50;;
8909;SDS011;4490;49.072;8.804;2023-03-11T15:41:57;3.97;;;1.73;;
8909;SDS011;4490;49.072;8.804;2023-03-11T15:44:33;5.93;;;1.70;;
8909;SDS011;4490;49.072;8.804;2023-03-11T15:47:04;3.20;;;1.50;;
8909;SDS011;4490;49.072;8.804;2023-03-11T15:49:41;2.83;;;1.50;;
8909;SDS011;4490;49.072;8.804;2023-03-11T15:52:07;3.53;;;1.47;;
8909;SDS011;4490;49.072;8.804;2023-03-11T15:54:33;3.17;;;1.67;;
8909;SDS011;4490;49.072;8.804;2023-03-11T15:57:03;2.33;;;1.33;;
8909;SDS011;4490;49.072;8.804;2023-03-11T15:59:31;4.07;;;1.60;;
8909;SDS011;4490;49.072;8.804;2023-03-11T16:01:58;3.33;;;1.40;;
8909;SDS011;4490;49.072;8.804;2023-03-11T16:04:24;4.00;;;1.70;;
8909;SDS011;4490;49.072;8.804;2023-03-11T16:06:50;2.10;;;1.60;;
8909;SDS011;4490;49.072;8.804;2023-03-11T16:09:17;4.60;;;1.70;;
8909;SDS011;4490;49.072;8.804;2023-03-11T16:11:43;3.47;;;1.67;;
8909;SDS011;4490;49.072;8.804;2023-03-11T16:14:17;3.47;;;1.53;;
8909;SDS011;4490;49.072;8.804;2023-03-11T16:16:45;2.57;;;1.50;;
8909;SDS011;4490;49.072;8.804;2023-03-11T16:19:11;3.37;;;1.47;;
8909;SDS011;4490;49.072;8.804;2023-03-11T16:21:44;5.70;;;1.70;;
8909;SDS011;4490;49.072;8.804;2023-03-11T16:24:20;2.93;;;1.70;;
8909;SDS011;4490;49.072;8.804;2023-03-11T16:26:47;2.63;;;1.30;;
8909;SDS011;4490;49.072;8.804;2023-03-11T16:29:15;3.67;;;1.73;;
8909;SDS011;4490;49.072;8.804;2023-03-11T16:31:41;4.17;;;1.50;;
8909;SDS011;4490;49.072;8.804;2023-03-11T16:34:06;4.10;;;1.47;;
8909;SDS011;4490;49.072;8.804;2023-03-11T16:36:32;3.60;;;1.60;;
8909;SDS011;4490;49.072;8.804;2023-03-11T16:38:58;3.43;;;1.53;;
8909;SDS011;4490;49.072;8.804;2023-03-11T16:41:23;3.03;;;1.50;;
8909;SDS011;4490;49.072;8.804;2023-03-11T16:43:49;2.93;;;1.70;;
8909;SDS011;4490;49.072;8.804;2023-03-11T16:46:14;2.03;;;1.50;;
8909;SDS011;4490;49.072;8.804;2023-03-11T16:48:40;3.00;;;1.43;;
8909;SDS011;4490;49.072;8.804;2023-03-11T16:51:06;3.03;;;1.50;;
8909;SDS011;4490;49.072;8.804;2023-03-11T16:53:32;4.80;;;1.40;;
8909;SDS011;4490;49.072;8.804;2023-03-11T16:55:58;5.13;;;2.00;;
8909;SDS011;4490;49.072;8.804;2023-03-11T16:58:24;1.77;;;1.40;;
8909;SDS011;4490;49.072;8.804;2023-03-11T17:00:49;4.67;;;1.33;;
8909;SDS011;4490;49.072;8.804;2023-03-11T17:03:16;3.20;;;1.70;;
8909;SDS011;4490;49.072;8.804;2023-03-11T17:05:43;3.90;;;1.50;;
8909;SDS011;4490;49.072;8.804;2023-03-11T17:08:09;5.47;;;1.77;;
8909;SDS011;4490;49.072;8.804;2023-03-11T17:10:37;3.37;;;1.67;;
8909;SDS011;4490;49.072;8.804;2023-03-11T17:13:05;2.90;;;1.73;;
8909;SDS011;4490;49.072;8.804;2023-03-11T17:15:31;4.17;;;1.70;;
8909;SDS011;4490;49.072;8.804;2023-03-11T17:17:59;2.80;;;1.67;;
8909;SDS011;4490;49.072;8.804;2023-03-11T17:20:25;3.27;;;1.90;;
8909;SDS011;4490;49.072;8.804;2023-03-11T17:22:51;2.07;;;1.87;;
8909;SDS011;4490;49.072;8.804;2023-03-11T17:25:16;4.53;;;1.83;;
8909;SDS011;4490;49.072;8.804;2023-03-11T17:27:43;3.70;;;2.00;;
8909;SDS011;4490;49.072;8.804;2023-03-11T17:30:10;3.30;;;1.80;;